sensor_id;sensor_type;location;lat;lon;timestamp;P1;durP1;ratioP1;P2;durP2;ratioP2
51358;SDS011;37448;51.588;7.248;2023-02-08T00:00:22;25.83;;;11.95;;
51358;SDS011;37448;51.588;7.248;2023-02-08T00:02:23;24.17;;;12.25;;
51358;SDS011;37448;51.588;7.248;2023-02-08T00:04:23;22.65;;;12.30;;
51358;SDS011;37448;51.588;7.248;2023-02-08T00:06:24;20.73;;;12.23;;
51358;SDS011;37448;51.588;7.248;2023-02-08T00:08:24;22.38;;;11.25;;
51358;SDS011;37448;51.588;7.248;2023-02-08T00:10:24;23.35;;;12.80;;
51358;SDS011;37448;51.588;7.248;2023-02-08T00:12:25;18.85;;;12.20;;
51358;SDS011;37448;51.588;7.248;2023-02-08T00:14:27;24.42;;;11.80;;
51358;SDS011;37448;51.588;7.248;2023-02-08T00:16:27;21.42;;;10.90;;
51358;SDS011;37448;51.588;7.248;2023-02-08T00:18:28;23.45;;;13.32;;
51358;SDS011;37448;51.588;7.248;2023-02-08T00:20:28;27.92;;;13.07;;
51358;SDS011;37448;51.588;7.248;2023-02-08T00:22:28;26.67;;;11.80;;
51358;SDS011;37448;51.588;7.248;2023-02-08T00:24:29;20.25;;;11.98;;
51358;SDS011;37448;51.588;7.248;2023-02-08T00:26:29;24.45;;;11.75;;
51358;SDS011;37448;51.588;7.248;2023-02-08T00:28:30;25.90;;;12.02;;
51358;SDS011;37448;51.588;7.248;2023-02-08T00:30:30;29.20;;;12.77;;
51358;SDS011;37448;51.588;7.248;2023-02-08T00:32:31;23.27;;;12.45;;
51358;SDS011;37448;51.588;7.248;2023-02-08T00:34:32;28.15;;;13.90;;
51358;SDS011;37448;51.588;7.248;2023-02-08T00:36:34;24.02;;;13.75;;
51358;SDS011;37448;51.588;7.248;2023-02-08T00:38:34;21.50;;;11.18;;
51358;SDS011;37448;51.588;7.248;2023-02-08T00:40:35;29.67;;;13.88;;
51358;SDS011;37448;51.588;7.248;2023-02-08T00:42:36;23.00;;;13.25;;
51358;SDS011;37448;51.588;7.248;2023-02-08T00:44:36;24.13;;;13.02;;
51358;SDS011;37448;51.588;7.248;2023-02-08T00:46:37;26.88;;;14.20;;
51358;SDS011;37448;51.588;7.248;2023-02-08T00:48:37;24.15;;;11.68;;
51358;SDS011;37448;51.588;7.248;2023-02-08T00:50:38;25.17;;;13.38;;
51358;SDS011;37448;51.588;7.248;2023-02-08T00:52:38;25.10;;;12.68;;
51358;SDS011;37448;51.588;7.248;2023-02-08T00:54:39;25.15;;;14.10;;
51358;SDS011;37448;51.588;7.248;2023-02-08T00:56:40;26.23;;;13.75;;
51358;SDS011;37448;51.588;7.248;2023-02-08T00:58:41;29.02;;;14.43;;
51358;SDS011;37448;51.588;7.248;2023-02-08T01:00:42;28.00;;;13.57;;
51358;SDS011;37448;51.588;7.248;2023-02-08T01:02:43;24.85;;;13.32;;
51358;SDS011;37448;51.588;7.248;2023-02-08T01:04:44;23.98;;;11.25;;
51358;SDS011;37448;51.588;7.248;2023-02-08T01:06:46;21.70;;;12.50;;
51358;SDS011;37448;51.588;7.248;2023-02-08T01:08:46;26.42;;;13.57;;
51358;SDS011;37448;51.588;7.248;2023-02-08T01:10:48;22.83;;;11.90;;
51358;SDS011;37448;51.588;7.248;2023-02-08T01:12:49;26.73;;;13.52;;
51358;SDS011;37448;51.588;7.248;2023-02-08T01:14:49;26.13;;;13.05;;
51358;SDS011;37448;51.588;7.248;2023-02-08T01:16:50;23.85;;;12.68;;
51358;SDS011;37448;51.588;7.248;2023-02-08T01:18:52;25.88;;;12.20;;
51358;SDS011;37448;51.588;7.248;2023-02-08T01:20:53;21.95;;;12.50;;
51358;SDS011;37448;51.588;7.248;2023-02-08T01:22:53;19.38;;;11.35;;
51358;SDS011;37448;51.588;7.248;2023-02-08T01:24:54;23.45;;;12.68;;
51358;SDS011;37448;51.588;7.248;2023-02-08T01:26:54;26.13;;;13.23;;
51358;SDS011;37448;51.588;7.248;2023-02-08T01:28:55;23.02;;;12.60;;
51358;SDS011;37448;51.588;7.248;2023-02-08T01:30:56;25.27;;;11.75;;
51358;SDS011;37448;51.588;7.248;2023-02-08T01:32:56;25.70;;;12.45;;
51358;SDS011;37448;51.588;7.248;2023-02-08T01:34:57;26.58;;;11.98;;
51358;SDS011;37448;51.588;7.248;2023-02-08T01:36:57;26.60;;;13.80;;
51358;SDS011;37448;51.588;7.248;2023-02-08T01:38:57;27.00;;;13.18;;
51358;SDS011;37448;51.588;7.248;2023-02-08T01:40:58;25.10;;;13.15;;
51358;SDS011;37448;51.588;7.248;2023-02-08T01:42:59;21.98;;;13.20;;
51358;SDS011;37448;51.588;7.248;2023-02-08T01:47:15;25.98;;;12.63;;
51358;SDS011;37448;51.588;7.248;2023-02-08T01:51:33;22.73;;;11.10;;
51358;SDS011;37448;51.588;7.248;2023-02-08T01:53:38;25.75;;;11.85;;
51358;SDS011;37448;51.588;7.248;2023-02-08T01:55:40;21.33;;;11.50;;
51358;SDS011;37448;51.588;7.248;2023-02-08T01:57:47;21.13;;;11.30;;
51358;SDS011;37448;51.588;7.248;2023-02-08T01:59:58;23.30;;;12.05;;
51358;SDS011;37448;51.588;7.248;2023-02-08T02:02:16;25.00;;;12.68;;
51358;SDS011;37448;51.588;7.248;2023-02-08T02:04:20;25.33;;;13.55;;
51358;SDS011;37448;51.588;7.248;2023-02-08T02:06:23;23.58;;;13.18;;
51358;SDS011;37448;51.588;7.248;2023-02-08T02:08:26;22.88;;;12.27;;
51358;SDS011;37448;51.588;7.248;2023-02-08T02:10:28;27.08;;;12.07;;
51358;SDS011;37448;51.588;7.248;2023-02-08T02:12:32;24.33;;;11.95;;
51358;SDS011;37448;51.588;7.248;2023-02-08T02:14:36;24.52;;;13.48;;
51358;SDS011;37448;51.588;7.248;2023-02-08T02:16:38;23.75;;;12.70;;
51358;SDS011;37448;51.588;7.248;2023-02-08T02:18:39;23.08;;;13.15;;
51358;SDS011;37448;51.588;7.248;2023-02-08T02:28:38;24.38;;;11.30;;
51358;SDS011;37448;51.588;7.248;2023-02-08T02:31:25;19.67;;;11.13;;
51358;SDS011;37448;51.588;7.248;2023-02-08T02:36:07;23.48;;;11.50;;
51358;SDS011;37448;51.588;7.248;2023-02-08T02:38:19;29.48;;;13.73;;
51358;SDS011;37448;51.588;7.248;2023-02-08T02:42:58;23.95;;;12.57;;
51358;SDS011;37448;51.588;7.248;2023-02-08T02:45:42;19.02;;;10.52;;
51358;SDS011;37448;51.588;7.248;2023-02-08T02:50:15;25.88;;;11.90;;
51358;SDS011;37448;51.588;7.248;2023-02-08T02:52:24;24.73;;;12.52;;
51358;SDS011;37448;51.588;7.248;2023-02-08T02:54:44;25.73;;;13.18;;
51358;SDS011;37448;51.588;7.248;2023-02-08T02:56:50;26.55;;;11.95;;
51358;SDS011;37448;51.588;7.248;2023-02-08T02:58:55;23.83;;;12.55;;
51358;SDS011;37448;51.588;7.248;2023-02-08T03:01:01;23.00;;;12.00;;
51358;SDS011;37448;51.588;7.248;2023-02-08T03:03:01;21.30;;;11.85;;
51358;SDS011;37448;51.588;7.248;2023-02-08T03:05:02;19.73;;;10.55;;
51358;SDS011;37448;51.588;7.248;2023-02-08T03:11:50;23.40;;;11.80;;
51358;SDS011;37448;51.588;7.248;2023-02-08T03:19:15;22.42;;;11.38;;
51358;SDS011;37448;51.588;7.248;2023-02-08T03:21:27;20.42;;;11.30;;
51358;SDS011;37448;51.588;7.248;2023-02-08T03:26:15;20.45;;;11.15;;
51358;SDS011;37448;51.588;7.248;2023-02-08T03:30:36;22.27;;;11.27;;
51358;SDS011;37448;51.588;7.248;2023-02-08T03:32:46;23.25;;;12.52;;
51358;SDS011;37448;51.588;7.248;2023-02-08T03:37:09;21.15;;;10.57;;
51358;SDS011;37448;51.588;7.248;2023-02-08T03:39:14;21.73;;;11.65;;
51358;SDS011;37448;51.588;7.248;2023-02-08T03:41:22;18.63;;;10.50;;
51358;SDS011;37448;51.588;7.248;2023-02-08T03:43:41;25.15;;;12.20;;
51358;SDS011;37448;51.588;7.248;2023-02-08T03:45:55;19.48;;;11.38;;
51358;SDS011;37448;51.588;7.248;2023-02-08T03:48:02;17.90;;;10.07;;
51358;SDS011;37448;51.588;7.248;2023-02-08T03:50:07;22.92;;;12.00;;
51358;SDS011;37448;51.588;7.248;2023-02-08T03:52:09;23.05;;;11.75;;
51358;SDS011;37448;51.588;7.248;2023-02-08T03:54:11;21.27;;;11.73;;
51358;SDS011;37448;51.588;7.248;2023-02-08T03:56:19;20.83;;;10.82;;
51358;SDS011;37448;51.588;7.248;2023-02-08T03:58:27;20.90;;;10.73;;
51358;SDS011;37448;51.588;7.248;2023-02-08T04:00:34;21.88;;;10.57;;
51358;SDS011;37448;51.588;7.248;2023-02-08T04:02:43;17.13;;;10.65;;
51358;SDS011;37448;51.588;7.248;2023-02-08T04:04:49;14.80;;;9.95;;
51358;SDS011;37448;51.588;7.248;2023-02-08T04:06:51;23.60;;;12.52;;
51358;SDS011;37448;51.588;7.248;2023-02-08T04:08:52;20.02;;;10.90;;
51358;SDS011;37448;51.588;7.248;2023-02-08T04:10:52;18.70;;;10.73;;
51358;SDS011;37448;51.588;7.248;2023-02-08T04:12:53;22.45;;;11.98;;
51358;SDS011;37448;51.588;7.248;2023-02-08T04:14:53;20.92;;;13.15;;
51358;SDS011;37448;51.588;7.248;2023-02-08T04:16:54;20.23;;;11.65;;
51358;SDS011;37448;51.588;7.248;2023-02-08T04:18:55;20.15;;;10.70;;
51358;SDS011;37448;51.588;7.248;2023-02-08T04:20:55;21.50;;;10.75;;
51358;SDS011;37448;51.588;7.248;2023-02-08T04:22:56;23.75;;;10.75;;
51358;SDS011;37448;51.588;7.248;2023-02-08T04:24:56;21.92;;;10.48;;
51358;SDS011;37448;51.588;7.248;2023-02-08T04:26:56;19.30;;;10.75;;
51358;SDS011;37448;51.588;7.248;2023-02-08T04:28:57;22.45;;;12.00;;
51358;SDS011;37448;51.588;7.248;2023-02-08T04:30:57;21.80;;;11.50;;
51358;SDS011;37448;51.588;7.248;2023-02-08T04:32:58;18.65;;;10.80;;
51358;SDS011;37448;51.588;7.248;2023-02-08T04:34:59;21.88;;;10.35;;
51358;SDS011;37448;51.588;7.248;2023-02-08T04:37:02;23.05;;;11.82;;
51358;SDS011;37448;51.588;7.248;2023-02-08T04:39:03;22.75;;;11.98;;
51358;SDS011;37448;51.588;7.248;2023-02-08T04:41:03;23.88;;;12.68;;
51358;SDS011;37448;51.588;7.248;2023-02-08T04:43:04;22.85;;;12.13;;
51358;SDS011;37448;51.588;7.248;2023-02-08T04:45:04;24.63;;;13.13;;
51358;SDS011;37448;51.588;7.248;2023-02-08T04:47:05;19.95;;;11.32;;
51358;SDS011;37448;51.588;7.248;2023-02-08T04:49:05;26.23;;;14.27;;
51358;SDS011;37448;51.588;7.248;2023-02-08T04:51:07;20.75;;;11.98;;
51358;SDS011;37448;51.588;7.248;2023-02-08T04:53:07;20.42;;;12.93;;
51358;SDS011;37448;51.588;7.248;2023-02-08T04:55:07;22.98;;;12.90;;
51358;SDS011;37448;51.588;7.248;2023-02-08T04:57:10;20.08;;;11.35;;
51358;SDS011;37448;51.588;7.248;2023-02-08T04:59:12;27.17;;;12.85;;
51358;SDS011;37448;51.588;7.248;2023-02-08T05:01:13;25.05;;;11.52;;
51358;SDS011;37448;51.588;7.248;2023-02-08T05:03:15;24.08;;;12.55;;
51358;SDS011;37448;51.588;7.248;2023-02-08T05:05:15;24.00;;;12.85;;
51358;SDS011;37448;51.588;7.248;2023-02-08T05:07:16;25.77;;;14.25;;
51358;SDS011;37448;51.588;7.248;2023-02-08T05:09:16;24.70;;;13.77;;
51358;SDS011;37448;51.588;7.248;2023-02-08T05:11:20;22.27;;;13.95;;
51358;SDS011;37448;51.588;7.248;2023-02-08T05:13:24;25.63;;;12.93;;
51358;SDS011;37448;51.588;7.248;2023-02-08T05:15:24;21.88;;;11.13;;
51358;SDS011;37448;51.588;7.248;2023-02-08T05:17:25;26.35;;;13.07;;
51358;SDS011;37448;51.588;7.248;2023-02-08T05:19:25;23.90;;;12.98;;
51358;SDS011;37448;51.588;7.248;2023-02-08T05:21:26;23.45;;;12.90;;
51358;SDS011;37448;51.588;7.248;2023-02-08T05:23:26;25.65;;;12.80;;
51358;SDS011;37448;51.588;7.248;2023-02-08T05:25:26;25.85;;;13.30;;
51358;SDS011;37448;51.588;7.248;2023-02-08T05:27:27;21.45;;;12.85;;
51358;SDS011;37448;51.588;7.248;2023-02-08T05:29:27;24.60;;;11.95;;
51358;SDS011;37448;51.588;7.248;2023-02-08T05:31:28;24.90;;;13.35;;
51358;SDS011;37448;51.588;7.248;2023-02-08T05:33:28;19.80;;;11.32;;
51358;SDS011;37448;51.588;7.248;2023-02-08T05:35:28;24.40;;;12.30;;
51358;SDS011;37448;51.588;7.248;2023-02-08T05:37:29;22.25;;;12.10;;
51358;SDS011;37448;51.588;7.248;2023-02-08T05:39:29;18.77;;;11.98;;
51358;SDS011;37448;51.588;7.248;2023-02-08T05:41:30;24.88;;;12.85;;
51358;SDS011;37448;51.588;7.248;2023-02-08T05:43:30;20.50;;;10.95;;
51358;SDS011;37448;51.588;7.248;2023-02-08T05:45:30;23.75;;;12.05;;
51358;SDS011;37448;51.588;7.248;2023-02-08T05:47:31;21.88;;;11.15;;
51358;SDS011;37448;51.588;7.248;2023-02-08T05:49:31;22.30;;;12.05;;
51358;SDS011;37448;51.588;7.248;2023-02-08T05:51:31;19.35;;;12.15;;
51358;SDS011;37448;51.588;7.248;2023-02-08T05:53:32;21.25;;;12.40;;
51358;SDS011;37448;51.588;7.248;2023-02-08T05:55:32;20.33;;;12.05;;
51358;SDS011;37448;51.588;7.248;2023-02-08T05:57:33;25.17;;;14.05;;
51358;SDS011;37448;51.588;7.248;2023-02-08T05:59:33;23.27;;;12.27;;
51358;SDS011;37448;51.588;7.248;2023-02-08T06:01:34;22.50;;;13.30;;
51358;SDS011;37448;51.588;7.248;2023-02-08T06:03:34;26.00;;;11.27;;
51358;SDS011;37448;51.588;7.248;2023-02-08T06:05:36;20.85;;;12.15;;
51358;SDS011;37448;51.588;7.248;2023-02-08T06:07:37;20.85;;;11.50;;
51358;SDS011;37448;51.588;7.248;2023-02-08T06:09:37;24.45;;;11.88;;
51358;SDS011;37448;51.588;7.248;2023-02-08T06:11:38;24.38;;;11.38;;
51358;SDS011;37448;51.588;7.248;2023-02-08T06:13:38;22.38;;;12.70;;
51358;SDS011;37448;51.588;7.248;2023-02-08T06:15:39;21.45;;;11.93;;
51358;SDS011;37448;51.588;7.248;2023-02-08T06:17:39;20.27;;;11.00;;
51358;SDS011;37448;51.588;7.248;2023-02-08T06:19:39;23.70;;;12.95;;
51358;SDS011;37448;51.588;7.248;2023-02-08T06:21:40;16.90;;;11.85;;
51358;SDS011;37448;51.588;7.248;2023-02-08T06:23:41;24.92;;;12.80;;
51358;SDS011;37448;51.588;7.248;2023-02-08T06:25:41;26.55;;;13.90;;
51358;SDS011;37448;51.588;7.248;2023-02-08T06:27:41;26.85;;;12.95;;
51358;SDS011;37448;51.588;7.248;2023-02-08T06:29:42;24.02;;;11.95;;
51358;SDS011;37448;51.588;7.248;2023-02-08T06:31:42;19.77;;;11.80;;
51358;SDS011;37448;51.588;7.248;2023-02-08T06:33:43;21.65;;;11.65;;
51358;SDS011;37448;51.588;7.248;2023-02-08T06:35:46;21.95;;;12.00;;
51358;SDS011;37448;51.588;7.248;2023-02-08T06:37:50;20.30;;;11.52;;
51358;SDS011;37448;51.588;7.248;2023-02-08T06:39:50;26.17;;;12.80;;
51358;SDS011;37448;51.588;7.248;2023-02-08T06:41:51;24.88;;;14.07;;
51358;SDS011;37448;51.588;7.248;2023-02-08T06:43:51;24.77;;;12.95;;
51358;SDS011;37448;51.588;7.248;2023-02-08T06:45:51;27.63;;;15.07;;
51358;SDS011;37448;51.588;7.248;2023-02-08T06:47:52;27.48;;;13.80;;
51358;SDS011;37448;51.588;7.248;2023-02-08T06:49:52;27.70;;;14.35;;
51358;SDS011;37448;51.588;7.248;2023-02-08T06:51:53;23.75;;;14.48;;
51358;SDS011;37448;51.588;7.248;2023-02-08T06:53:53;25.23;;;14.73;;
51358;SDS011;37448;51.588;7.248;2023-02-08T06:55:56;25.92;;;14.40;;
51358;SDS011;37448;51.588;7.248;2023-02-08T06:57:57;25.80;;;13.52;;
51358;SDS011;37448;51.588;7.248;2023-02-08T06:59:57;21.25;;;13.68;;
51358;SDS011;37448;51.588;7.248;2023-02-08T07:01:58;25.42;;;12.98;;
51358;SDS011;37448;51.588;7.248;2023-02-08T07:03:59;25.40;;;13.65;;
51358;SDS011;37448;51.588;7.248;2023-02-08T07:05:59;27.88;;;13.20;;
51358;SDS011;37448;51.588;7.248;2023-02-08T07:08:03;26.38;;;13.18;;
51358;SDS011;37448;51.588;7.248;2023-02-08T07:12:04;21.40;;;10.57;;
51358;SDS011;37448;51.588;7.248;2023-02-08T07:14:05;21.15;;;11.05;;
51358;SDS011;37448;51.588;7.248;2023-02-08T07:16:06;20.90;;;12.02;;
51358;SDS011;37448;51.588;7.248;2023-02-08T07:18:08;20.85;;;11.20;;
51358;SDS011;37448;51.588;7.248;2023-02-08T07:20:08;24.40;;;12.43;;
51358;SDS011;37448;51.588;7.248;2023-02-08T07:22:10;23.33;;;12.27;;
51358;SDS011;37448;51.588;7.248;2023-02-08T07:24:10;26.25;;;12.70;;
51358;SDS011;37448;51.588;7.248;2023-02-08T07:26:11;24.58;;;11.88;;
51358;SDS011;37448;51.588;7.248;2023-02-08T07:28:14;23.85;;;12.50;;
51358;SDS011;37448;51.588;7.248;2023-02-08T07:30:14;29.38;;;13.95;;
51358;SDS011;37448;51.588;7.248;2023-02-08T07:32:14;24.25;;;12.98;;
51358;SDS011;37448;51.588;7.248;2023-02-08T07:34:15;21.73;;;11.93;;
51358;SDS011;37448;51.588;7.248;2023-02-08T07:36:20;21.35;;;11.50;;
51358;SDS011;37448;51.588;7.248;2023-02-08T07:38:21;23.70;;;12.88;;
51358;SDS011;37448;51.588;7.248;2023-02-08T07:40:21;20.48;;;12.57;;
51358;SDS011;37448;51.588;7.248;2023-02-08T07:42:21;21.80;;;12.30;;
51358;SDS011;37448;51.588;7.248;2023-02-08T07:44:37;23.35;;;12.45;;
51358;SDS011;37448;51.588;7.248;2023-02-08T07:46:38;22.75;;;13.25;;
51358;SDS011;37448;51.588;7.248;2023-02-08T07:48:39;19.00;;;11.77;;
51358;SDS011;37448;51.588;7.248;2023-02-08T07:50:40;24.75;;;14.25;;
51358;SDS011;37448;51.588;7.248;2023-02-08T07:52:40;22.73;;;12.20;;
51358;SDS011;37448;51.588;7.248;2023-02-08T07:54:43;23.73;;;13.15;;
51358;SDS011;37448;51.588;7.248;2023-02-08T07:56:43;24.92;;;13.07;;
51358;SDS011;37448;51.588;7.248;2023-02-08T07:58:43;24.45;;;13.05;;
51358;SDS011;37448;51.588;7.248;2023-02-08T08:00:44;28.10;;;12.45;;
51358;SDS011;37448;51.588;7.248;2023-02-08T08:02:44;19.77;;;11.55;;
51358;SDS011;37448;51.588;7.248;2023-02-08T08:04:44;21.25;;;13.18;;
51358;SDS011;37448;51.588;7.248;2023-02-08T08:06:45;25.77;;;12.77;;
51358;SDS011;37448;51.588;7.248;2023-02-08T08:08:45;22.52;;;11.82;;
51358;SDS011;37448;51.588;7.248;2023-02-08T08:10:46;23.42;;;12.20;;
51358;SDS011;37448;51.588;7.248;2023-02-08T08:12:47;24.05;;;12.18;;
51358;SDS011;37448;51.588;7.248;2023-02-08T08:14:50;20.42;;;11.45;;
51358;SDS011;37448;51.588;7.248;2023-02-08T08:16:50;26.48;;;12.32;;
51358;SDS011;37448;51.588;7.248;2023-02-08T08:18:51;20.80;;;11.38;;
51358;SDS011;37448;51.588;7.248;2023-02-08T08:20:51;19.35;;;11.13;;
51358;SDS011;37448;51.588;7.248;2023-02-08T08:22:51;19.35;;;10.82;;
51358;SDS011;37448;51.588;7.248;2023-02-08T08:24:52;20.90;;;11.30;;
51358;SDS011;37448;51.588;7.248;2023-02-08T08:26:52;19.92;;;11.55;;
51358;SDS011;37448;51.588;7.248;2023-02-08T08:28:53;20.75;;;12.02;;
51358;SDS011;37448;51.588;7.248;2023-02-08T08:30:53;17.63;;;10.82;;
51358;SDS011;37448;51.588;7.248;2023-02-08T08:32:53;19.23;;;11.77;;
51358;SDS011;37448;51.588;7.248;2023-02-08T08:34:54;15.93;;;10.45;;
51358;SDS011;37448;51.588;7.248;2023-02-08T08:36:58;18.88;;;10.60;;
51358;SDS011;37448;51.588;7.248;2023-02-08T08:39:00;18.42;;;10.32;;
51358;SDS011;37448;51.588;7.248;2023-02-08T08:41:07;19.70;;;10.50;;
51358;SDS011;37448;51.588;7.248;2023-02-08T08:43:09;19.58;;;10.63;;
51358;SDS011;37448;51.588;7.248;2023-02-08T08:45:09;18.80;;;10.15;;
51358;SDS011;37448;51.588;7.248;2023-02-08T08:47:10;19.23;;;11.02;;
51358;SDS011;37448;51.588;7.248;2023-02-08T08:49:10;18.67;;;11.00;;
51358;SDS011;37448;51.588;7.248;2023-02-08T08:51:11;17.45;;;10.65;;
51358;SDS011;37448;51.588;7.248;2023-02-08T08:53:12;15.60;;;10.43;;
51358;SDS011;37448;51.588;7.248;2023-02-08T08:55:12;15.10;;;10.25;;
51358;SDS011;37448;51.588;7.248;2023-02-08T08:57:12;17.20;;;11.38;;
51358;SDS011;37448;51.588;7.248;2023-02-08T08:59:13;17.75;;;12.00;;
51358;SDS011;37448;51.588;7.248;2023-02-08T09:01:13;19.20;;;11.77;;
51358;SDS011;37448;51.588;7.248;2023-02-08T09:03:14;18.55;;;11.55;;
51358;SDS011;37448;51.588;7.248;2023-02-08T09:05:14;16.90;;;9.98;;
51358;SDS011;37448;51.588;7.248;2023-02-08T09:07:15;16.95;;;10.07;;
51358;SDS011;37448;51.588;7.248;2023-02-08T09:09:15;17.23;;;10.48;;
51358;SDS011;37448;51.588;7.248;2023-02-08T09:11:16;20.25;;;10.00;;
51358;SDS011;37448;51.588;7.248;2023-02-08T09:13:16;16.45;;;10.18;;
51358;SDS011;37448;51.588;7.248;2023-02-08T09:15:20;18.10;;;10.70;;
51358;SDS011;37448;51.588;7.248;2023-02-08T09:17:21;17.90;;;10.35;;
51358;SDS011;37448;51.588;7.248;2023-02-08T09:19:21;13.27;;;8.65;;
51358;SDS011;37448;51.588;7.248;2023-02-08T09:21:22;17.42;;;9.55;;
51358;SDS011;37448;51.588;7.248;2023-02-08T09:23:25;18.00;;;10.25;;
51358;SDS011;37448;51.588;7.248;2023-02-08T09:25:26;17.60;;;10.32;;
51358;SDS011;37448;51.588;7.248;2023-02-08T09:27:27;17.25;;;9.93;;
51358;SDS011;37448;51.588;7.248;2023-02-08T09:29:28;16.48;;;9.63;;
51358;SDS011;37448;51.588;7.248;2023-02-08T09:31:30;15.77;;;8.90;;
51358;SDS011;37448;51.588;7.248;2023-02-08T09:33:36;14.00;;;8.63;;
51358;SDS011;37448;51.588;7.248;2023-02-08T09:35:37;16.23;;;8.32;;
51358;SDS011;37448;51.588;7.248;2023-02-08T09:37:37;12.93;;;7.65;;
51358;SDS011;37448;51.588;7.248;2023-02-08T09:39:38;13.52;;;8.98;;
51358;SDS011;37448;51.588;7.248;2023-02-08T09:47:27;13.88;;;8.55;;
51358;SDS011;37448;51.588;7.248;2023-02-08T09:49:22;12.85;;;8.93;;
51358;SDS011;37448;51.588;7.248;2023-02-08T09:51:28;11.60;;;8.30;;
51358;SDS011;37448;51.588;7.248;2023-02-08T09:53:35;15.00;;;8.73;;
51358;SDS011;37448;51.588;7.248;2023-02-08T09:55:43;12.32;;;8.20;;
51358;SDS011;37448;51.588;7.248;2023-02-08T09:57:47;10.45;;;7.35;;
51358;SDS011;37448;51.588;7.248;2023-02-08T09:59:55;10.00;;;7.40;;
51358;SDS011;37448;51.588;7.248;2023-02-08T10:04:29;9.75;;;6.82;;
51358;SDS011;37448;51.588;7.248;2023-02-08T10:06:37;11.63;;;7.03;;
51358;SDS011;37448;51.588;7.248;2023-02-08T10:08:37;8.15;;;6.00;;
51358;SDS011;37448;51.588;7.248;2023-02-08T10:22:12;11.65;;;5.90;;
51358;SDS011;37448;51.588;7.248;2023-02-08T10:27:03;9.63;;;6.25;;
51358;SDS011;37448;51.588;7.248;2023-02-08T10:29:15;8.93;;;5.63;;
51358;SDS011;37448;51.588;7.248;2023-02-08T10:31:42;7.00;;;5.35;;
51358;SDS011;37448;51.588;7.248;2023-02-08T10:34:10;9.00;;;5.78;;
51358;SDS011;37448;51.588;7.248;2023-02-08T10:42:30;7.55;;;5.05;;
51358;SDS011;37448;51.588;7.248;2023-02-08T10:44:35;8.63;;;5.60;;
51358;SDS011;37448;51.588;7.248;2023-02-08T10:46:51;7.13;;;4.90;;
51358;SDS011;37448;51.588;7.248;2023-02-08T10:51:15;9.02;;;5.72;;
51358;SDS011;37448;51.588;7.248;2023-02-08T10:53:17;9.50;;;5.28;;
51358;SDS011;37448;51.588;7.248;2023-02-08T10:55:19;10.70;;;6.25;;
51358;SDS011;37448;51.588;7.248;2023-02-08T10:57:41;7.57;;;4.70;;
51358;SDS011;37448;51.588;7.248;2023-02-08T10:59:55;7.03;;;4.97;;
51358;SDS011;37448;51.588;7.248;2023-02-08T11:02:00;6.65;;;4.75;;
51358;SDS011;37448;51.588;7.248;2023-02-08T11:04:07;9.15;;;5.45;;
51358;SDS011;37448;51.588;7.248;2023-02-08T11:06:23;7.53;;;5.00;;
51358;SDS011;37448;51.588;7.248;2023-02-08T11:08:26;8.02;;;5.13;;
51358;SDS011;37448;51.588;7.248;2023-02-08T11:10:27;9.23;;;5.15;;
51358;SDS011;37448;51.588;7.248;2023-02-08T11:12:28;8.38;;;4.88;;
51358;SDS011;37448;51.588;7.248;2023-02-08T11:14:29;9.30;;;5.50;;
51358;SDS011;37448;51.588;7.248;2023-02-08T11:16:38;7.20;;;4.30;;
51358;SDS011;37448;51.588;7.248;2023-02-08T11:18:45;12.60;;;4.95;;
51358;SDS011;37448;51.588;7.248;2023-02-08T11:20:50;10.23;;;4.55;;
51358;SDS011;37448;51.588;7.248;2023-02-08T11:22:52;7.85;;;4.22;;
51358;SDS011;37448;51.588;7.248;2023-02-08T11:25:00;7.32;;;4.40;;
51358;SDS011;37448;51.588;7.248;2023-02-08T11:27:03;7.85;;;4.35;;
51358;SDS011;37448;51.588;7.248;2023-02-08T11:29:28;9.35;;;4.60;;
51358;SDS011;37448;51.588;7.248;2023-02-08T11:31:29;7.05;;;4.28;;
51358;SDS011;37448;51.588;7.248;2023-02-08T11:33:31;8.45;;;4.45;;
51358;SDS011;37448;51.588;7.248;2023-02-08T11:35:31;6.82;;;4.05;;
51358;SDS011;37448;51.588;7.248;2023-02-08T11:37:32;7.63;;;4.07;;
51358;SDS011;37448;51.588;7.248;2023-02-08T11:39:36;9.15;;;3.55;;
51358;SDS011;37448;51.588;7.248;2023-02-08T11:41:43;5.65;;;3.63;;
51358;SDS011;37448;51.588;7.248;2023-02-08T11:43:55;7.72;;;4.10;;
51358;SDS011;37448;51.588;7.248;2023-02-08T11:46:01;6.35;;;3.63;;
51358;SDS011;37448;51.588;7.248;2023-02-08T11:48:03;5.88;;;3.63;;
51358;SDS011;37448;51.588;7.248;2023-02-08T11:50:25;6.57;;;4.20;;
51358;SDS011;37448;51.588;7.248;2023-02-08T11:52:30;11.43;;;4.07;;
51358;SDS011;37448;51.588;7.248;2023-02-08T11:54:38;5.78;;;3.25;;
51358;SDS011;37448;51.588;7.248;2023-02-08T11:56:40;5.72;;;3.13;;
51358;SDS011;37448;51.588;7.248;2023-02-08T11:58:41;6.22;;;3.50;;
51358;SDS011;37448;51.588;7.248;2023-02-08T12:00:41;6.72;;;3.72;;
51358;SDS011;37448;51.588;7.248;2023-02-08T12:03:05;8.15;;;3.45;;
51358;SDS011;37448;51.588;7.248;2023-02-08T12:05:31;4.22;;;2.70;;
51358;SDS011;37448;51.588;7.248;2023-02-08T12:07:46;5.47;;;3.10;;
51358;SDS011;37448;51.588;7.248;2023-02-08T12:10:00;5.35;;;3.03;;
51358;SDS011;37448;51.588;7.248;2023-02-08T12:21:36;6.70;;;3.22;;
51358;SDS011;37448;51.588;7.248;2023-02-08T12:23:54;7.57;;;3.17;;
51358;SDS011;37448;51.588;7.248;2023-02-08T12:28:24;5.68;;;3.63;;
51358;SDS011;37448;51.588;7.248;2023-02-08T12:30:33;5.72;;;2.92;;
51358;SDS011;37448;51.588;7.248;2023-02-08T12:32:49;4.07;;;3.20;;
51358;SDS011;37448;51.588;7.248;2023-02-08T12:37:26;3.85;;;2.70;;
51358;SDS011;37448;51.588;7.248;2023-02-08T12:40:13;5.03;;;2.55;;
51358;SDS011;37448;51.588;7.248;2023-02-08T12:42:53;5.57;;;2.45;;
51358;SDS011;37448;51.588;7.248;2023-02-08T12:45:14;6.63;;;2.97;;
51358;SDS011;37448;51.588;7.248;2023-02-08T12:54:38;6.55;;;2.70;;
51358;SDS011;37448;51.588;7.248;2023-02-08T12:56:46;4.07;;;2.53;;
51358;SDS011;37448;51.588;7.248;2023-02-08T12:58:55;4.20;;;2.55;;
51358;SDS011;37448;51.588;7.248;2023-02-08T13:01:01;6.30;;;2.13;;
51358;SDS011;37448;51.588;7.248;2023-02-08T13:03:16;4.75;;;2.53;;
51358;SDS011;37448;51.588;7.248;2023-02-08T13:05:31;5.82;;;2.20;;
51358;SDS011;37448;51.588;7.248;2023-02-08T13:07:37;4.82;;;2.67;;
51358;SDS011;37448;51.588;7.248;2023-02-08T13:10:03;4.90;;;2.42;;
51358;SDS011;37448;51.588;7.248;2023-02-08T13:14:33;5.13;;;2.45;;
51358;SDS011;37448;51.588;7.248;2023-02-08T13:16:36;4.60;;;1.70;;
51358;SDS011;37448;51.588;7.248;2023-02-08T13:18:43;6.15;;;2.22;;
51358;SDS011;37448;51.588;7.248;2023-02-08T13:20:53;5.82;;;2.88;;
51358;SDS011;37448;51.588;7.248;2023-02-08T13:23:05;4.60;;;2.58;;
51358;SDS011;37448;51.588;7.248;2023-02-08T13:25:15;3.47;;;2.45;;
51358;SDS011;37448;51.588;7.248;2023-02-08T13:27:23;4.97;;;2.30;;
51358;SDS011;37448;51.588;7.248;2023-02-08T13:29:24;4.45;;;2.25;;
51358;SDS011;37448;51.588;7.248;2023-02-08T13:31:28;4.28;;;2.35;;
51358;SDS011;37448;51.588;7.248;2023-02-08T13:35:48;4.03;;;2.50;;
51358;SDS011;37448;51.588;7.248;2023-02-08T13:37:51;3.85;;;2.03;;
51358;SDS011;37448;51.588;7.248;2023-02-08T13:39:59;4.95;;;2.40;;
51358;SDS011;37448;51.588;7.248;2023-02-08T13:42:04;6.70;;;2.30;;
51358;SDS011;37448;51.588;7.248;2023-02-08T13:44:19;4.00;;;2.13;;
51358;SDS011;37448;51.588;7.248;2023-02-08T13:46:42;3.50;;;2.58;;